sensor_id;sensor_type;location;lat;lon;timestamp;pressure;altitude;pressure_sealevel;temperature
55038;BMP280;40937;53.594;10.034;2023-02-01T00:01:36;101198.91;;;5.61
55038;BMP280;40937;53.594;10.034;2023-02-01T00:04:02;101190.91;;;5.62
55038;BMP280;40937;53.594;10.034;2023-02-01T00:06:29;101198.56;;;5.64
55038;BMP280;40937;53.594;10.034;2023-02-01T00:08:56;101204.78;;;5.63
55038;BMP280;40937;53.594;10.034;2023-02-01T00:11:24;101195.66;;;5.59
55038;BMP280;40937;53.594;10.034;2023-02-01T00:13:51;101169.03;;;5.55
55038;BMP280;40937;53.594;10.034;2023-02-01T00:16:20;101185.91;;;5.52
55038;BMP280;40937;53.594;10.034;2023-02-01T00:18:48;101183.94;;;5.55
55038;BMP280;40937;53.594;10.034;2023-02-01T00:21:17;101188.16;;;5.56
55038;BMP280;40937;53.594;10.034;2023-02-01T00:23:44;101177.25;;;5.52
55038;BMP280;40937;53.594;10.034;2023-02-01T00:26:14;101173.22;;;5.49
55038;BMP280;40937;53.594;10.034;2023-02-01T00:28:42;101171.41;;;5.50
55038;BMP280;40937;53.594;10.034;2023-02-01T00:31:09;101163.75;;;5.48
55038;BMP280;40937;53.594;10.034;2023-02-01T00:33:35;101177.44;;;5.50
55038;BMP280;40937;53.594;10.034;2023-02-01T00:36:04;101164.00;;;5.53
55038;BMP280;40937;53.594;10.034;2023-02-01T00:38:32;101164.78;;;5.54
55038;BMP280;40937;53.594;10.034;2023-02-01T00:41:02;101174.47;;;5.53
55038;BMP280;40937;53.594;10.034;2023-02-01T00:43:30;101175.72;;;5.58
55038;BMP280;40937;53.594;10.034;2023-02-01T00:45:58;101174.09;;;5.57
55038;BMP280;40937;53.594;10.034;2023-02-01T00:48:25;101172.75;;;5.61
55038;BMP280;40937;53.594;10.034;2023-02-01T00:50:52;101172.56;;;5.62
55038;BMP280;40937;53.594;10.034;2023-02-01T00:53:19;101174.34;;;5.62
55038;BMP280;40937;53.594;10.034;2023-02-01T00:55:46;101159.09;;;5.65
55038;BMP280;40937;53.594;10.034;2023-02-01T00:58:13;101155.47;;;5.66
55038;BMP280;40937;53.594;10.034;2023-02-01T01:00:40;101167.19;;;5.70
55038;BMP280;40937;53.594;10.034;2023-02-01T01:03:08;101172.25;;;5.72
55038;BMP280;40937;53.594;10.034;2023-02-01T01:05:44;101162.34;;;5.67
55038;BMP280;40937;53.594;10.034;2023-02-01T01:08:11;101166.41;;;5.70
55038;BMP280;40937;53.594;10.034;2023-02-01T01:10:37;101153.31;;;5.70
55038;BMP280;40937;53.594;10.034;2023-02-01T01:13:04;101165.38;;;5.71
55038;BMP280;40937;53.594;10.034;2023-02-01T01:15:31;101156.56;;;5.72
55038;BMP280;40937;53.594;10.034;2023-02-01T01:17:57;101143.47;;;5.72
55038;BMP280;40937;53.594;10.034;2023-02-01T01:20:26;101141.47;;;5.74
55038;BMP280;40937;53.594;10.034;2023-02-01T01:22:53;101144.25;;;5.72
55038;BMP280;40937;53.594;10.034;2023-02-01T01:25:20;101151.75;;;5.76
55038;BMP280;40937;53.594;10.034;2023-02-01T01:27:47;101149.97;;;5.76
55038;BMP280;40937;53.594;10.034;2023-02-01T01:30:14;101157.16;;;5.74
55038;BMP280;40937;53.594;10.034;2023-02-01T01:32:41;101137.06;;;5.75
55038;BMP280;40937;53.594;10.034;2023-02-01T01:35:08;101135.88;;;5.77
55038;BMP280;40937;53.594;10.034;2023-02-01T01:37:36;101133.06;;;5.79
55038;BMP280;40937;53.594;10.034;2023-02-01T01:40:04;101125.59;;;5.82
55038;BMP280;40937;53.594;10.034;2023-02-01T01:42:36;101118.56;;;5.76
55038;BMP280;40937;53.594;10.034;2023-02-01T01:45:06;101116.91;;;5.75
55038;BMP280;40937;53.594;10.034;2023-02-01T01:47:35;101115.34;;;5.81
55038;BMP280;40937;53.594;10.034;2023-02-01T01:50:07;101105.69;;;5.81
55038;BMP280;40937;53.594;10.034;2023-02-01T01:52:34;101105.69;;;5.81
55038;BMP280;40937;53.594;10.034;2023-02-01T01:55:04;101107.28;;;5.82
55038;BMP280;40937;53.594;10.034;2023-02-01T01:57:34;101105.06;;;5.79
55038;BMP280;40937;53.594;10.034;2023-02-01T02:00:06;101107.28;;;5.82
55038;BMP280;40937;53.594;10.034;2023-02-01T02:02:41;101095.47;;;5.86
55038;BMP280;40937;53.594;10.034;2023-02-01T02:05:09;101111.53;;;5.83
55038;BMP280;40937;53.594;10.034;2023-02-01T02:07:39;101098.44;;;5.83
55038;BMP280;40937;53.594;10.034;2023-02-01T02:10:10;101096.81;;;5.82
55038;BMP280;40937;53.594;10.034;2023-02-01T02:12:38;101096.44;;;5.85
55038;BMP280;40937;53.594;10.034;2023-02-01T02:15:06;101092.84;;;5.86
55038;BMP280;40937;53.594;10.034;2023-02-01T02:17:36;101089.25;;;5.87
55038;BMP280;40937;53.594;10.034;2023-02-01T02:20:38;101085.59;;;5.88
55038;BMP280;40937;53.594;10.034;2023-02-01T02:26:25;101069.69;;;5.90
55038;BMP280;40937;53.594;10.034;2023-02-01T02:35:10;101058.25;;;5.91
55038;BMP280;40937;53.594;10.034;2023-02-01T02:37:44;101061.66;;;5.92
55038;BMP280;40937;53.594;10.034;2023-02-01T02:40:14;101057.06;;;5.94
55038;BMP280;40937;53.594;10.034;2023-02-01T02:42:52;101053.00;;;5.91
55038;BMP280;40937;53.594;10.034;2023-02-01T02:45:44;101064.47;;;5.90
55038;BMP280;40937;53.594;10.034;2023-02-01T02:48:36;101054.81;;;5.90
55038;BMP280;40937;53.594;10.034;2023-02-01T02:51:12;101046.59;;;5.94
55038;BMP280;40937;53.594;10.034;2023-02-01T02:53:59;101039.72;;;5.93
55038;BMP280;40937;53.594;10.034;2023-02-01T02:56:46;101036.50;;;5.90
55038;BMP280;40937;53.594;10.034;2023-02-01T02:59:32;101031.88;;;5.93
55038;BMP280;40937;53.594;10.034;2023-02-01T03:02:19;101018.41;;;5.96
55038;BMP280;40937;53.594;10.034;2023-02-01T03:05:04;101026.03;;;5.90
55038;BMP280;40937;53.594;10.034;2023-02-01T03:07:57;101012.94;;;5.90
55038;BMP280;40937;53.594;10.034;2023-02-01T03:10:33;101021.16;;;5.87
55038;BMP280;40937;53.594;10.034;2023-02-01T03:13:04;101028.66;;;5.90
55038;BMP280;40937;53.594;10.034;2023-02-01T03:15:36;101019.53;;;5.86
55038;BMP280;40937;53.594;10.034;2023-02-01T03:18:09;101009.44;;;5.83
55038;BMP280;40937;53.594;10.034;2023-02-01T03:20:38;100999.94;;;5.82
55038;BMP280;40937;53.594;10.034;2023-02-01T03:23:09;100992.31;;;5.81
55038;BMP280;40937;53.594;10.034;2023-02-01T03:25:37;100982.44;;;5.76
55038;BMP280;40937;53.594;10.034;2023-02-01T03:28:07;100990.50;;;5.81
55038;BMP280;40937;53.594;10.034;2023-02-01T03:31:19;101006.59;;;5.78
55038;BMP280;40937;53.594;10.034;2023-02-01T03:34:54;101009.41;;;5.77
55038;BMP280;40937;53.594;10.034;2023-02-01T03:38:16;100998.88;;;5.70
55038;BMP280;40937;53.594;10.034;2023-02-01T03:41:58;100986.31;;;5.59
55038;BMP280;40937;53.594;10.034;2023-02-01T03:59:29;100981.00;;;5.52
55038;BMP280;40937;53.594;10.034;2023-02-01T04:02:25;100964.13;;;5.55
55038;BMP280;40937;53.594;10.034;2023-02-01T04:05:15;100958.91;;;5.55
55038;BMP280;40937;53.594;10.034;2023-02-01T04:11:57;100961.66;;;5.46
55038;BMP280;40937;53.594;10.034;2023-02-01T04:19:35;100960.41;;;5.42
55038;BMP280;40937;53.594;10.034;2023-02-01T04:21:18;100956.78;;;5.43
55038;BMP280;40937;53.594;10.034;2023-02-01T04:25:19;100946.78;;;5.47
55038;BMP280;40937;53.594;10.034;2023-02-01T04:28:30;100947.19;;;5.50
55038;BMP280;40937;53.594;10.034;2023-02-01T04:31:19;100934.50;;;5.47
55038;BMP280;40937;53.594;10.034;2023-02-01T04:41:02;100940.72;;;5.46
55038;BMP280;40937;53.594;10.034;2023-02-01T04:44:08;100929.41;;;5.39
55038;BMP280;40937;53.594;10.034;2023-02-01T04:50:35;100938.59;;;5.35
55038;BMP280;40937;53.594;10.034;2023-02-01T04:53:06;100933.38;;;5.35
55038;BMP280;40937;53.594;10.034;2023-02-01T04:59:55;100923.44;;;5.24
55038;BMP280;40937;53.594;10.034;2023-02-01T05:02:35;100918.81;;;5.26
55038;BMP280;40937;53.594;10.034;2023-02-01T05:05:40;100920.03;;;5.23
55038;BMP280;40937;53.594;10.034;2023-02-01T05:08:28;100950.50;;;5.16
55038;BMP280;40937;53.594;10.034;2023-02-01T05:11:18;100958.34;;;5.16
55038;BMP280;40937;53.594;10.034;2023-02-01T05:14:11;100942.34;;;5.04
55038;BMP280;40937;53.594;10.034;2023-02-01T05:17:27;100942.25;;;4.91
55038;BMP280;40937;53.594;10.034;2023-02-01T05:20:33;100942.28;;;4.76
55038;BMP280;40937;53.594;10.034;2023-02-01T05:23:13;100943.94;;;4.84
55038;BMP280;40937;53.594;10.034;2023-02-01T05:25:48;100946.72;;;4.75
55038;BMP280;40937;53.594;10.034;2023-02-01T05:28:41;100927.78;;;4.73
55038;BMP280;40937;53.594;10.034;2023-02-01T05:35:09;100905.38;;;4.64
55038;BMP280;40937;53.594;10.034;2023-02-01T05:44:38;100937.47;;;4.43
55038;BMP280;40937;53.594;10.034;2023-02-01T05:47:40;100941.63;;;4.37
55038;BMP280;40937;53.594;10.034;2023-02-01T05:50:14;100952.28;;;4.21
55038;BMP280;40937;53.594;10.034;2023-02-01T05:53:46;100952.28;;;4.21
55038;BMP280;40937;53.594;10.034;2023-02-01T05:56:58;100947.28;;;4.26
55038;BMP280;40937;53.594;10.034;2023-02-01T06:07:14;100940.09;;;3.98
55038;BMP280;40937;53.594;10.034;2023-02-01T06:13:16;100927.31;;;4.03
55038;BMP280;40937;53.594;10.034;2023-02-01T06:20:32;100934.78;;;4.07
55038;BMP280;40937;53.594;10.034;2023-02-01T06:23:06;100933.72;;;4.16
55038;BMP280;40937;53.594;10.034;2023-02-01T06:40:06;100920.19;;;4.27
55038;BMP280;40937;53.594;10.034;2023-02-01T06:42:54;100928.22;;;4.26
55038;BMP280;40937;53.594;10.034;2023-02-01T06:45:37;100920.81;;;4.29
55038;BMP280;40937;53.594;10.034;2023-02-01T06:48:20;100922.16;;;4.25
55038;BMP280;40937;53.594;10.034;2023-02-01T06:51:35;100919.38;;;4.27
55038;BMP280;40937;53.594;10.034;2023-02-01T06:56:55;100915.06;;;4.34
55038;BMP280;40937;53.594;10.034;2023-02-01T06:58:36;100921.56;;;4.38
55038;BMP280;40937;53.594;10.034;2023-02-01T07:01:15;100918.94;;;4.38
55038;BMP280;40937;53.594;10.034;2023-02-01T07:04:11;100917.19;;;4.45
55038;BMP280;40937;53.594;10.034;2023-02-01T07:07:06;100926.56;;;4.54
55038;BMP280;40937;53.594;10.034;2023-02-01T07:10:11;100927.38;;;4.55
55038;BMP280;40937;53.594;10.034;2023-02-01T07:19:11;100949.88;;;4.56
55038;BMP280;40937;53.594;10.034;2023-02-01T07:21:48;100938.63;;;4.55
55038;BMP280;40937;53.594;10.034;2023-02-01T07:24:18;100931.50;;;4.64
55038;BMP280;40937;53.594;10.034;2023-02-01T07:26:45;100924.63;;;4.63
55038;BMP280;40937;53.594;10.034;2023-02-01T07:29:13;100923.47;;;4.66
55038;BMP280;40937;53.594;10.034;2023-02-01T07:31:39;100920.31;;;4.70
55038;BMP280;40937;53.594;10.034;2023-02-01T07:34:08;100919.31;;;4.71
55038;BMP280;40937;53.594;10.034;2023-02-01T07:36:34;100926.16;;;4.72
55038;BMP280;40937;53.594;10.034;2023-02-01T07:39:01;100906.31;;;4.78
55038;BMP280;40937;53.594;10.034;2023-02-01T07:41:28;100938.88;;;4.75
55038;BMP280;40937;53.594;10.034;2023-02-01T07:43:55;100912.84;;;4.67
55038;BMP280;40937;53.594;10.034;2023-02-01T07:46:22;100935.09;;;4.63
55038;BMP280;40937;53.594;10.034;2023-02-01T07:48:48;100922.66;;;4.65
55038;BMP280;40937;53.594;10.034;2023-02-01T07:51:17;100924.88;;;4.68
55038;BMP280;40937;53.594;10.034;2023-02-01T07:53:44;100932.38;;;4.71
55038;BMP280;40937;53.594;10.034;2023-02-01T07:56:12;100940.59;;;4.90
55038;BMP280;40937;53.594;10.034;2023-02-01T07:58:39;100943.13;;;4.98
55038;BMP280;40937;53.594;10.034;2023-02-01T08:01:13;100939.47;;;4.99
55038;BMP280;40937;53.594;10.034;2023-02-01T08:03:50;100939.56;;;5.06
55038;BMP280;40937;53.594;10.034;2023-02-01T08:06:19;100943.25;;;5.11
55038;BMP280;40937;53.594;10.034;2023-02-01T08:08:46;100950.09;;;5.12
55038;BMP280;40937;53.594;10.034;2023-02-01T08:11:13;100937.84;;;5.13
55038;BMP280;40937;53.594;10.034;2023-02-01T08:13:40;100944.13;;;5.19
55038;BMP280;40937;53.594;10.034;2023-02-01T08:16:09;100945.34;;;5.23
55038;BMP280;40937;53.594;10.034;2023-02-01T08:18:37;100955.63;;;5.24
55038;BMP280;40937;53.594;10.034;2023-02-01T08:21:05;100958.31;;;5.31
55038;BMP280;40937;53.594;10.034;2023-02-01T08:23:34;100968.75;;;5.31
55038;BMP280;40937;53.594;10.034;2023-02-01T08:26:07;100966.78;;;5.33
55038;BMP280;40937;53.594;10.034;2023-02-01T08:28:34;100971.81;;;5.34
55038;BMP280;40937;53.594;10.034;2023-02-01T08:31:05;100966.63;;;5.41
55038;BMP280;40937;53.594;10.034;2023-02-01T08:33:32;100967.25;;;5.43
55038;BMP280;40937;53.594;10.034;2023-02-01T08:36:00;100977.53;;;5.45
55038;BMP280;40937;53.594;10.034;2023-02-01T08:38:27;100974.16;;;5.51
55038;BMP280;40937;53.594;10.034;2023-02-01T08:40:55;100972.97;;;5.53
55038;BMP280;40937;53.594;10.034;2023-02-01T08:43:22;100968.13;;;5.50
55038;BMP280;40937;53.594;10.034;2023-02-01T08:45:54;100969.75;;;5.51
55038;BMP280;40937;53.594;10.034;2023-02-01T08:48:21;100963.69;;;5.51
55038;BMP280;40937;53.594;10.034;2023-02-01T08:50:48;100944.97;;;5.47
55038;BMP280;40937;53.594;10.034;2023-02-01T08:53:14;100941.22;;;5.35
55038;BMP280;40937;53.594;10.034;2023-02-01T08:55:41;100948.66;;;5.31
55038;BMP280;40937;53.594;10.034;2023-02-01T08:58:09;100940.63;;;5.33
55038;BMP280;40937;53.594;10.034;2023-02-01T09:00:36;100940.00;;;5.31
55038;BMP280;40937;53.594;10.034;2023-02-01T09:03:03;100946.44;;;5.35
55038;BMP280;40937;53.594;10.034;2023-02-01T09:05:29;100949.97;;;5.42
55038;BMP280;40937;53.594;10.034;2023-02-01T09:07:56;100946.97;;;5.45
55038;BMP280;40937;53.594;10.034;2023-02-01T09:10:23;100942.34;;;5.47
55038;BMP280;40937;53.594;10.034;2023-02-01T09:12:49;100949.44;;;5.53
55038;BMP280;40937;53.594;10.034;2023-02-01T09:15:18;100933.97;;;5.59
55038;BMP280;40937;53.594;10.034;2023-02-01T09:17:45;100927.97;;;5.65
55038;BMP280;40937;53.594;10.034;2023-02-01T09:20:12;100928.03;;;5.71
55038;BMP280;40937;53.594;10.034;2023-02-01T09:22:39;100935.88;;;5.71
55038;BMP280;40937;53.594;10.034;2023-02-01T09:25:07;100937.09;;;5.76
55038;BMP280;40937;53.594;10.034;2023-02-01T09:27:34;100938.56;;;5.78
55038;BMP280;40937;53.594;10.034;2023-02-01T09:30:01;100935.75;;;5.86
55038;BMP280;40937;53.594;10.034;2023-02-01T09:32:29;100930.56;;;5.93
55038;BMP280;40937;53.594;10.034;2023-02-01T09:34:56;100953.34;;;5.99
55038;BMP280;40937;53.594;10.034;2023-02-01T09:37:23;100938.28;;;6.01
55038;BMP280;40937;53.594;10.034;2023-02-01T09:39:58;100942.31;;;6.04
55038;BMP280;40937;53.594;10.034;2023-02-01T09:42:56;100933.44;;;6.05
55038;BMP280;40937;53.594;10.034;2023-02-01T09:45:30;100946.34;;;6.06
55038;BMP280;40937;53.594;10.034;2023-02-01T09:48:15;100942.56;;;6.09
55038;BMP280;40937;53.594;10.034;2023-02-01T09:50:52;100939.94;;;6.09
55038;BMP280;40937;53.594;10.034;2023-02-01T09:53:26;100937.31;;;6.09
55038;BMP280;40937;53.594;10.034;2023-02-01T09:55:55;100941.13;;;6.13
55038;BMP280;40937;53.594;10.034;2023-02-01T09:58:30;100942.75;;;6.14
55038;BMP280;40937;53.594;10.034;2023-02-01T10:01:00;100942.38;;;6.17
55038;BMP280;40937;53.594;10.034;2023-02-01T10:03:30;100939.97;;;6.22
55038;BMP280;40937;53.594;10.034;2023-02-01T10:06:09;100942.44;;;6.31
55038;BMP280;40937;53.594;10.034;2023-02-01T10:08:57;100943.66;;;6.35
55038;BMP280;40937;53.594;10.034;2023-02-01T10:11:32;100938.03;;;6.38
55038;BMP280;40937;53.594;10.034;2023-02-01T10:14:20;100931.38;;;6.42
55038;BMP280;40937;53.594;10.034;2023-02-01T10:17:01;100923.53;;;6.42
55038;BMP280;40937;53.594;10.034;2023-02-01T11:17:21;100854.25;;;5.55
55038;BMP280;40937;53.594;10.034;2023-02-01T11:19:56;100854.66;;;5.58
55038;BMP280;40937;53.594;10.034;2023-02-01T11:22:24;100846.25;;;5.63
55038;BMP280;40937;53.594;10.034;2023-02-01T11:24:52;100852.50;;;5.68
55038;BMP280;40937;53.594;10.034;2023-02-01T11:27:21;100844.69;;;5.75
55038;BMP280;40937;53.594;10.034;2023-02-01T11:29:50;100849.63;;;5.98
55038;BMP280;40937;53.594;10.034;2023-02-01T11:32:20;100850.03;;;6.02
55038;BMP280;40937;53.594;10.034;2023-02-01T11:34:51;100837.56;;;6.04
55038;BMP280;40937;53.594;10.034;2023-02-01T11:37:21;100830.94;;;6.08
55038;BMP280;40937;53.594;10.034;2023-02-01T11:39:54;100829.94;;;6.09
55038;BMP280;40937;53.594;10.034;2023-02-01T11:42:22;100819.66;;;6.14
55038;BMP280;40937;53.594;10.034;2023-02-01T11:44:49;100814.03;;;6.17
55038;BMP280;40937;53.594;10.034;2023-02-01T11:47:24;100810.19;;;6.13
55038;BMP280;40937;53.594;10.034;2023-02-01T11:49:53;100806.38;;;6.16
55038;BMP280;40937;53.594;10.034;2023-02-01T11:52:38;100793.50;;;6.21
55038;BMP280;40937;53.594;10.034;2023-02-01T11:55:17;100796.94;;;6.21
55038;BMP280;40937;53.594;10.034;2023-02-01T11:57:55;100798.13;;;6.19
55038;BMP280;40937;53.594;10.034;2023-02-01T12:00:45;100795.31;;;6.20
55038;BMP280;40937;53.594;10.034;2023-02-01T12:03:41;100791.25;;;6.18
55038;BMP280;40937;53.594;10.034;2023-02-01T12:06:16;100790.06;;;6.14
55038;BMP280;40937;53.594;10.034;2023-02-01T12:09:01;100789.22;;;6.13
55038;BMP280;40937;53.594;10.034;2023-02-01T12:11:41;100784.19;;;6.05
55038;BMP280;40937;53.594;10.034;2023-02-01T12:14:23;100781.19;;;6.08
55038;BMP280;40937;53.594;10.034;2023-02-01T12:16:59;100773.94;;;6.10
55038;BMP280;40937;53.594;10.034;2023-02-01T12:19:44;100783.19;;;6.06
55038;BMP280;40937;53.594;10.034;2023-02-01T12:22:24;100783.41;;;6.04
55038;BMP280;40937;53.594;10.034;2023-02-01T12:25:29;100790.63;;;5.96
55038;BMP280;40937;53.594;10.034;2023-02-01T12:34:17;100791.59;;;5.95
55038;BMP280;40937;53.594;10.034;2023-02-01T12:36:56;100811.72;;;5.87
55038;BMP280;40937;53.594;10.034;2023-02-01T12:39:31;100812.69;;;5.73
55038;BMP280;40937;53.594;10.034;2023-02-01T12:42:01;100828.06;;;5.55
55038;BMP280;40937;53.594;10.034;2023-02-01T12:44:39;100801.47;;;5.51
55038;BMP280;40937;53.594;10.034;2023-02-01T12:47:14;100813.53;;;5.45
55038;BMP280;40937;53.594;10.034;2023-02-01T12:49:51;100812.84;;;5.37
55038;BMP280;40937;53.594;10.034;2023-02-01T12:52:27;100806.59;;;5.31
55038;BMP280;40937;53.594;10.034;2023-02-01T12:55:05;100816.41;;;5.22
55038;BMP280;40937;53.594;10.034;2023-02-01T12:57:35;100813.53;;;5.17
55038;BMP280;40937;53.594;10.034;2023-02-01T13:00:13;100812.97;;;5.22
55038;BMP280;40937;53.594;10.034;2023-02-01T13:02:43;100801.69;;;5.21
55038;BMP280;40937;53.594;10.034;2023-02-01T13:05:16;100805.31;;;5.20
55038;BMP280;40937;53.594;10.034;2023-02-01T13:07:49;100798.00;;;5.09
55038;BMP280;40937;53.594;10.034;2023-02-01T13:10:20;100799.19;;;5.06
55038;BMP280;40937;53.594;10.034;2023-02-01T13:12:51;100795.56;;;5.07
55038;BMP280;40937;53.594;10.034;2023-02-01T13:15:24;100800.69;;;5.16
55038;BMP280;40937;53.594;10.034;2023-02-01T13:17:52;100783.94;;;5.17
55038;BMP280;40937;53.594;10.034;2023-02-01T13:20:24;100786.38;;;5.18
55038;BMP280;40937;53.594;10.034;2023-02-01T13:22:57;100776.38;;;5.22
55038;BMP280;40937;53.594;10.034;2023-02-01T13:25:29;100789.25;;;5.23
55038;BMP280;40937;53.594;10.034;2023-02-01T13:28:03;100787.88;;;5.34
55038;BMP280;40937;53.594;10.034;2023-02-01T13:30:42;100792.16;;;5.42
55038;BMP280;40937;53.594;10.034;2023-02-01T13:33:24;100780.53;;;5.44
55038;BMP280;40937;53.594;10.034;2023-02-01T13:36:06;100784.31;;;5.42
55038;BMP280;40937;53.594;10.034;2023-02-01T13:38:49;100788.16;;;5.39
55038;BMP280;40937;53.594;10.034;2023-02-01T13:41:25;100792.16;;;5.42
55038;BMP280;40937;53.594;10.034;2023-02-01T13:43:56;100794.22;;;5.46
55038;BMP280;40937;53.594;10.034;2023-02-01T13:46:24;100786.59;;;5.51
55038;BMP280;40937;53.594;10.034;2023-02-01T13:48:54;100783.22;;;5.58
55038;BMP280;40937;53.594;10.034;2023-02-01T13:51:33;100780.22;;;5.61
55038;BMP280;40937;53.594;10.034;2023-02-01T13:54:03;100765.72;;;5.65
55038;BMP280;40937;53.594;10.034;2023-02-01T13:56:40;100770.56;;;5.61
55038;BMP280;40937;53.594;10.034;2023-02-01T13:59:36;100778.97;;;5.57
55038;BMP280;40937;53.594;10.034;2023-02-01T14:02:46;100763.66;;;5.53
55038;BMP280;40937;53.594;10.034;2023-02-01T14:08:22;100807.44;;;5.38
55038;BMP280;40937;53.594;10.034;2023-02-01T14:10:52;100831.53;;;5.27
55038;BMP280;40937;53.594;10.034;2023-02-01T14:13:27;100817.44;;;5.28
55038;BMP280;40937;53.594;10.034;2023-02-01T14:16:14;100811.41;;;5.34
55038;BMP280;40937;53.594;10.034;2023-02-01T14:18:59;100832.75;;;5.31
55038;BMP280;40937;53.594;10.034;2023-02-01T14:21:28;100803.97;;;5.31
55038;BMP280;40937;53.594;10.034;2023-02-01T14:23:58;100782.47;;;5.36
55038;BMP280;40937;53.594;10.034;2023-02-01T14:26:41;100812.00;;;5.29
55038;BMP280;40937;53.594;10.034;2023-02-01T14:29:26;100796.91;;;5.25
55038;BMP280;40937;53.594;10.034;2023-02-01T14:32:01;100843.91;;;5.18
55038;BMP280;40937;53.594;10.034;2023-02-01T14:34:35;100841.09;;;5.20
55038;BMP280;40937;53.594;10.034;2023-02-01T14:37:10;100862.19;;;5.11
55038;BMP280;40937;53.594;10.034;2023-02-01T14:39:52;100871.13;;;4.95
55038;BMP280;40937;53.594;10.034;2023-02-01T14:42:25;100867.19;;;4.85
55038;BMP280;40937;53.594;10.034;2023-02-01T14:44:54;100867.69;;;4.73
55038;BMP280;40937;53.594;10.034;2023-02-01T14:47:36;100868.91;;;4.77
55038;BMP280;40937;53.594;10.034;2023-02-01T14:50:31;100860.09;;;4.79
55038;BMP280;40937;53.594;10.034;2023-02-01T14:53:11;100864.94;;;4.82
55038;BMP280;40937;53.594;10.034;2023-02-01T14:55:40;100862.19;;;4.90
55038;BMP280;40937;53.594;10.034;2023-02-01T14:58:16;100866.25;;;4.92
55038;BMP280;40937;53.594;10.034;2023-02-01T15:00:50;100869.41;;;4.88
55038;BMP280;40937;53.594;10.034;2023-02-01T15:03:34;100866.63;;;4.89
55038;BMP280;40937;53.594;10.034;2023-02-01T15:06:02;100865.06;;;4.95
55038;BMP280;40937;53.594;10.034;2023-02-01T15:08:33;100871.91;;;4.96
55038;BMP280;40937;53.594;10.034;2023-02-01T15:11:03;100870.47;;;4.93
55038;BMP280;40937;53.594;10.034;2023-02-01T15:13:33;100865.91;;;5.02
55038;BMP280;40937;53.594;10.034;2023-02-01T15:16:01;100859.50;;;5.05
55038;BMP280;40937;53.594;10.034;2023-02-01T15:18:28;100864.63;;;5.13
55038;BMP280;40937;53.594;10.034;2023-02-01T15:20:58;100875.25;;;5.11
55038;BMP280;40937;53.594;10.034;2023-02-01T15:23:25;100869.41;;;5.09
55038;BMP280;40937;53.594;10.034;2023-02-01T15:25:53;100869.41;;;5.09
55038;BMP280;40937;53.594;10.034;2023-02-01T15:28:20;100879.88;;;5.09
55038;BMP280;40937;53.594;10.034;2023-02-01T15:30:57;100871.66;;;5.12
55038;BMP280;40937;53.594;10.034;2023-02-01T15:33:25;100874.69;;;5.16
55038;BMP280;40937;53.594;10.034;2023-02-01T15:35:53;100874.66;;;5.09
55038;BMP280;40937;53.594;10.034;2023-02-01T15:38:38;100886.84;;;5.02
55038;BMP280;40937;53.594;10.034;2023-02-01T15:41:08;100904.16;;;5.03
55038;BMP280;40937;53.594;10.034;2023-02-01T15:43:37;100909.97;;;4.99
55038;BMP280;40937;53.594;10.034;2023-02-01T15:46:10;100906.69;;;4.96
55038;BMP280;40937;53.594;10.034;2023-02-01T15:48:42;100902.88;;;4.99
55038;BMP280;40937;53.594;10.034;2023-02-01T15:51:15;100903.28;;;4.96
55038;BMP280;40937;53.594;10.034;2023-02-01T15:53:52;100918.06;;;4.89
55038;BMP280;40937;53.594;10.034;2023-02-01T15:56:24;100898.41;;;4.93
55038;BMP280;40937;53.594;10.034;2023-02-01T15:58:54;100900.06;;;4.94
55038;BMP280;40937;53.594;10.034;2023-02-01T16:01:23;100898.41;;;4.93
55038;BMP280;40937;53.594;10.034;2023-02-01T16:04:03;100891.13;;;4.88
55038;BMP280;40937;53.594;10.034;2023-02-01T16:06:31;100892.75;;;4.89
55038;BMP280;40937;53.594;10.034;2023-02-01T16:09:03;100899.78;;;4.89
55038;BMP280;40937;53.594;10.034;2023-02-01T16:11:32;100897.25;;;4.95
55038;BMP280;40937;53.594;10.034;2023-02-01T16:14:00;100895.44;;;4.96
55038;BMP280;40937;53.594;10.034;2023-02-01T16:16:28;100899.91;;;5.02
55038;BMP280;40937;53.594;10.034;2023-02-01T16:18:55;100894.06;;;5.00
55038;BMP280;40937;53.594;10.034;2023-02-01T16:21:22;100899.91;;;5.02
55038;BMP280;40937;53.594;10.034;2023-02-01T16:23:50;100896.31;;;5.03
55038;BMP280;40937;53.594;10.034;2023-02-01T16:26:17;100910.00;;;5.05
55038;BMP280;40937;53.594;10.034;2023-02-01T16:28:44;100912.25;;;5.08
55038;BMP280;40937;53.594;10.034;2023-02-01T16:31:12;100920.31;;;5.13
55038;BMP280;40937;53.594;10.034;2023-02-01T16:33:46;100923.59;;;5.16
55038;BMP280;40937;53.594;10.034;2023-02-01T16:36:13;100934.63;;;5.18
55038;BMP280;40937;53.594;10.034;2023-02-01T16:38:40;100930.66;;;5.22
55038;BMP280;40937;53.594;10.034;2023-02-01T16:41:11;100922.63;;;5.23
55038;BMP280;40937;53.594;10.034;2023-02-01T16:43:38;100924.06;;;5.26
55038;BMP280;40937;53.594;10.034;2023-02-01T16:46:05;100927.69;;;5.25
55038;BMP280;40937;53.594;10.034;2023-02-01T16:48:35;100920.81;;;5.24
55038;BMP280;40937;53.594;10.034;2023-02-01T16:51:07;100938.56;;;5.28
55038;BMP280;40937;53.594;10.034;2023-02-01T16:53:34;100940.63;;;5.33
55038;BMP280;40937;53.594;10.034;2023-02-01T16:56:01;100929.28;;;5.26
55038;BMP280;40937;53.594;10.034;2023-02-01T16:58:31;100931.91;;;5.26
55038;BMP280;40937;53.594;10.034;2023-02-01T17:00:57;100935.53;;;5.25
55038;BMP280;40937;53.594;10.034;2023-02-01T17:03:24;100932.91;;;5.25
55038;BMP280;40937;53.594;10.034;2023-02-01T17:05:53;100936.56;;;5.30
55038;BMP280;40937;53.594;10.034;2023-02-01T17:08:30;100939.75;;;5.26
55038;BMP280;40937;53.594;10.034;2023-02-01T17:10:57;100943.38;;;5.25
55038;BMP280;40937;53.594;10.034;2023-02-01T17:13:24;100951.84;;;5.27
55038;BMP280;40937;53.594;10.034;2023-02-01T17:16:15;100955.06;;;5.29
55038;BMP280;40937;53.594;10.034;2023-02-01T17:22:26;100947.84;;;5.31
55038;BMP280;40937;53.594;10.034;2023-02-01T17:25:37;100954.31;;;5.35
55038;BMP280;40937;53.594;10.034;2023-02-01T17:28:25;100955.56;;;5.39
55038;BMP280;40937;53.594;10.034;2023-02-01T17:31:45;100960.41;;;5.42